Liberal Mid-America Regional Airport
KLBL : now visible

Airfield :











YOU CAN JOIN US ON...

 
LOGIN :

Register | Disclaimer

   EN    FR    IT 

 









Legend :    VFR   Marginal VFR   IFR   Intensive IFR   Very Intensive IFR
Visi :
Ceiling :
>= 8 km
>= 3000ft
5 to 8 km
1000 to 3000 ft
1500m to 5 km
500 to 1000 ft
800 to 1500m
200 to 500 ft
< 800m
< 200 ft
Symbols :   Thunderstorms  Fog  Heavy snow  Heavy precipitations  Wind > 20 kt






- Airport Elevation : 2885 ft
- IATA code : LBL


KLBL - Liberal Mid-America Regional

CURRENT METAR :
  • 192256Z AUTO 17014KT 10SM CLR 23/01 A2972 RMK AO2 SLP053 T02280006

EXPIRED METARs :
  • 192156Z AUTO 19018G22KT 10SM CLR 23/01 A2973 RMK AO2 PK WND 19026/2108 SLP055 T02330006
  • 192056Z AUTO 18019G25KT 10SM CLR 23/00 A2974 RMK AO2 PK WND 18028/2002 SLP058 T02330000 56031

TAF KLBL
Valid from the 20 at 00:00 until the 21 at 00:00 UTC


192320Z 2000/2024 19018G22KT P6SM SCT200
FM200400 15012KT P6SM SKC WS020/20040KT
FM201700 19019G27KT P6SM BKN120
FM202200 20018KT P6SM BKN200



MET'MAP, your aeronautical weather chart ! - Copyright ORBIFLY December 2007 - Disclaimer

ORBIFLY MET'MAP TEAM :

Programming & Development : Alexandra Zaïnal
Concept & Development : Baudouin d'Aumeries
Co-Development & Prog : Marc-Olivier Méhu
Technical & hardware support : Manuel Goepfert

Contact : metmap@orbifly.com




SOURCES & CREDITS :

   NOAA       Earth
Advisory